Airfield :
LOGIN :

Register | Disclaimer

   EN    FR    IT 

 










Legend :    VFR   Marginal VFR   IFR   Intensive IFR   Very Intensive IFR
Visi :
Ceiling :
>= 8 km
>= 3000ft
5 to 8 km
1000 to 3000 ft
1500m to 5 km
500 to 1000 ft
800 to 1500m
200 to 500 ft
< 800m
< 200 ft
Symbols :   Thunderstorms  Fog  Heavy snow  Heavy precipitations  Wind > 20 kt
SIGMETs :     Misc.  Thunderstorms  Icing  Turbulence  Mountain Waves  Volcanic Ashes






- Airport Elevation : 36 ft
- IATA code : RIX


EVRA - Riga

CURRENT METAR :
  • 192020Z 20009KT 9999 BKN014 OVC019 05/03 Q1006 R18/290195 NOSIG

EXPIRED METARs :
  • 191950Z 20009KT 9999 BKN015 OVC032 05/03 Q1006 R18/290195 NOSIG
  • 191920Z 21011KT 9999 OVC015 05/03 Q1006 R18/290195 NOSIG
  • 191850Z 21010KT 9999 OVC015 05/03 Q1006 R18/290195 NOSIG
  • 191820Z 21009KT 9999 BKN015 OVC020 05/03 Q1006 R18/290195 NOSIG
  • 191750Z 20009KT 9999 BKN016 OVC049 05/03 Q1006 R18/290195 NOSIG

TAF TAF EVRA
Valid from the 19 at 21:00 until the 20 at 21:00 UTC


192000Z 1921/2021 18010KT 9999 BKN015
TEMPO 1921/1924 BKN010 OVC015
BECMG 2000/2002 24007KT
TEMPO 2000/2006 BKN005 OVC015



MET'MAP, your aeronautical weather chart ! - Copyright ORBIFLY December 2007 - Disclaimer

ORBIFLY MET'MAP TEAM :

Programming & Development : Alexandra Zaïnal
Concept & original design : Baudouin d'Aumeries
Assistance for programming : Marc-Olivier Méhu
Technical & hardware support : Manuel Goepfert

Contact : metmap@orbifly.com




SOURCES & CREDITS :

   NOAA